Time;durP1;ratioP1;P1;durP2;ratioP2;P2;SDS_P1;SDS_P2;PMS_P1;PMS_P2;Temp;Humidity;BMP_temperature;BMP_pressure;BME280_temperature;BME280_humidity;BME280_pressure;Samples;Min_cycle;Max_cycle;Signal;HPM_P1;HPM_P2
2023/01/17 00:01:53;;;;;;;1.10;0.90;;;;;;;3.27;100.00;94152.41;5071271;28;20247;-60
2023/01/17 00:09:56;;;;;;;0.93;0.80;;;;;;;3.23;100.00;94145.88;5071047;28;20197;-59
2023/01/17 00:12:24;;;;;;;1.07;0.50;;;;;;;3.24;100.00;94148.34;5071103;28;20206;-59
2023/01/17 00:14:52;;;;;;;0.77;0.77;;;;;;;3.24;100.00;94142.28;5071219;28;20198;-60
2023/01/17 00:17:18;;;;;;;0.40;0.40;;;;;;;3.29;100.00;94137.41;5071242;28;20241;-60
2023/01/17 01:34:20;;;;;;;0.93;0.60;;;;;;;3.91;96.14;94125.53;5070362;28;20209;-59
2023/01/17 01:36:46;;;;;;;0.93;0.50;;;;;;;3.80;95.92;94131.91;5067869;28;20202;-59
2023/01/17 01:39:14;;;;;;;0.40;0.40;;;;;;;3.78;100.00;94127.84;5070308;28;21372;-59
2023/01/17 01:41:41;;;;;;;0.97;0.47;;;;;;;3.70;96.63;94133.88;5070292;28;20217;-59
2023/01/17 01:44:41;;;;;;;1.70;0.77;;;;;;;3.66;98.00;94127.34;5070474;28;20210;-60
2023/01/17 01:47:08;;;;;;;0.60;0.60;;;;;;;3.58;98.27;94132.53;5070520;28;20206;-59
2023/01/17 01:49:34;;;;;;;0.50;0.50;;;;;;;3.54;100.00;94139.09;5070230;28;20206;-59
2023/01/17 01:52:03;;;;;;;0.53;0.50;;;;;;;3.49;100.00;94136.97;5070759;28;20198;-60
2023/01/17 01:54:34;;;;;;;0.40;0.40;;;;;;;3.27;100.00;94131.53;5072371;28;20558;-60
2023/01/17 01:57:03;;;;;;;0.33;0.33;;;;;;;3.24;100.00;94127.44;5071897;28;20203;-60
2023/01/17 01:59:30;;;;;;;1.07;0.50;;;;;;;3.20;100.00;94135.75;5073457;28;20895;-60
2023/01/17 02:01:57;;;;;;;0.40;0.40;;;;;;;3.05;100.00;94127.72;5074156;28;20674;-60
2023/01/17 02:04:24;;;;;;;0.43;0.43;;;;;;;2.91;100.00;94133.53;5071406;28;20209;-59
2023/01/17 02:06:54;;;;;;;0.60;0.60;;;;;;;2.88;100.00;94121.63;5069871;28;20637;-60
2023/01/17 02:09:21;;;;;;;0.83;0.53;;;;;;;2.80;100.00;94119.00;5069559;28;20198;-59
2023/01/17 02:11:49;;;;;;;0.80;0.80;;;;;;;2.87;100.00;94120.00;5073061;28;20229;-60
2023/01/17 02:14:16;;;;;;;2.07;0.70;;;;;;;2.81;100.00;94111.97;5073440;28;20206;-59
2023/01/17 02:16:52;;;;;;;1.17;0.77;;;;;;;2.81;100.00;94110.19;5071670;28;20199;-59
2023/01/17 02:19:54;;;;;;;1.17;0.40;;;;;;;2.79;100.00;94101.72;5072628;28;20223;-59
2023/01/17 02:22:44;;;;;;;2.27;0.40;;;;;;;2.74;100.00;94103.16;5072841;28;20210;-58
2023/01/17 02:25:29;;;;;;;0.60;0.60;;;;;;;2.73;100.00;94096.31;5071991;28;20508;-59
2023/01/17 02:28:10;;;;;;;0.53;0.50;;;;;;;2.76;100.00;94091.59;5073240;28;20288;-60
2023/01/17 02:30:39;;;;;;;0.57;0.40;;;;;;;2.85;100.00;94090.63;5072912;28;20653;-58
2023/01/17 02:33:14;;;;;;;0.90;0.70;;;;;;;2.85;100.00;94089.81;5070542;28;20207;-59
2023/01/17 02:35:48;;;;;;;0.80;0.80;;;;;;;2.88;100.00;94082.50;5074365;28;20549;-59
2023/01/17 02:38:24;;;;;;;0.50;0.50;;;;;;;2.94;100.00;94084.44;5074122;28;20209;-59
2023/01/17 02:40:57;;;;;;;1.47;0.60;;;;;;;2.96;100.00;94087.75;5073060;28;20637;-59
2023/01/17 02:43:24;;;;;;;1.40;0.60;;;;;;;2.96;100.00;94090.34;5072986;28;20281;-58
2023/01/17 02:45:52;;;;;;;2.10;0.70;;;;;;;3.10;100.00;94083.69;5072868;28;20230;-59
2023/01/17 02:48:21;;;;;;;0.50;0.40;;;;;;;3.20;100.00;94088.75;5072480;28;20657;-58
2023/01/17 02:51:18;;;;;;;0.50;0.50;;;;;;;3.23;100.00;94088.44;5068630;28;20206;-59
2023/01/17 02:53:53;;;;;;;0.73;0.70;;;;;;;3.27;100.00;94087.13;5069367;28;20209;-59
2023/01/17 02:56:28;;;;;;;2.13;0.50;;;;;;;3.26;100.00;94077.69;5073054;28;20198;-60
2023/01/17 02:59:06;;;;;;;0.73;0.57;;;;;;;3.23;100.00;94073.59;5072763;28;20515;-60
2023/01/17 03:01:40;;;;;;;1.60;0.50;;;;;;;3.24;100.00;94061.34;5072524;28;20234;-59
2023/01/17 03:04:13;;;;;;;0.43;0.40;;;;;;;3.25;100.00;94068.22;5072412;28;20190;-59
2023/01/17 03:06:43;;;;;;;0.90;0.63;;;;;;;3.28;100.00;94054.81;5072495;28;20207;-59
2023/01/17 03:09:10;;;;;;;0.77;0.60;;;;;;;3.27;100.00;94054.00;5067059;28;20203;-58
2023/01/17 03:11:36;;;;;;;0.50;0.50;;;;;;;3.28;100.00;94055.66;5072877;28;20653;-59
2023/01/17 03:14:03;;;;;;;1.73;1.00;;;;;;;3.25;100.00;94055.97;5072298;28;20203;-59
2023/01/17 03:16:34;;;;;;;0.63;0.50;;;;;;;3.24;100.00;94050.91;5081508;28;20202;-62
2023/01/17 03:19:01;;;;;;;0.50;0.50;;;;;;;3.26;100.00;94056.78;5092612;28;20201;-59
2023/01/17 03:21:27;;;;;;;0.47;0.47;;;;;;;3.16;100.00;94058.72;5092372;28;20194;-59
2023/01/17 03:23:54;;;;;;;0.57;0.57;;;;;;;3.07;100.00;94057.91;5080921;28;20203;-59
2023/01/17 03:26:21;;;;;;;0.40;0.40;;;;;;;3.05;100.00;94056.44;5073980;28;20236;-61
2023/01/17 03:28:47;;;;;;;0.83;0.50;;;;;;;2.97;100.00;94047.63;5072854;28;20207;-59
2023/01/17 03:31:14;;;;;;;0.50;0.50;;;;;;;2.97;100.00;94047.63;5072655;28;20194;-59
2023/01/17 03:33:43;;;;;;;0.67;0.60;;;;;;;2.94;100.00;94052.34;5066781;28;20194;-59
2023/01/17 03:36:10;;;;;;;1.00;0.50;;;;;;;2.89;100.00;94049.38;5072313;28;20213;-59
2023/01/17 03:38:37;;;;;;;1.33;0.70;;;;;;;2.83;100.00;94050.84;5071853;28;20219;-59
2023/01/17 03:41:04;;;;;;;0.93;0.80;;;;;;;2.82;100.00;94051.00;5071843;28;20220;-60
2023/01/17 03:43:30;;;;;;;1.40;0.90;;;;;;;2.81;100.00;94042.34;5071964;28;20202;-58
2023/01/17 03:46:01;;;;;;;2.40;1.23;;;;;;;2.77;100.00;94042.81;5072222;28;20218;-57
2023/01/17 03:48:28;;;;;;;0.97;0.97;;;;;;;2.78;100.00;94042.66;5071975;28;20217;-57
2023/01/17 03:50:56;;;;;;;1.60;0.93;;;;;;;2.85;100.00;94033.22;5072307;28;20237;-59
2023/01/17 03:53:22;;;;;;;1.67;0.70;;;;;;;2.81;100.00;94031.09;5066235;28;20295;-58
2023/01/17 03:55:49;;;;;;;1.93;0.80;;;;;;;2.75;100.00;94040.38;5071733;28;20194;-58
2023/01/17 03:58:15;;;;;;;1.03;0.63;;;;;;;2.76;100.00;94039.41;5071863;28;20237;-57
2023/01/17 04:00:42;;;;;;;1.67;0.70;;;;;;;2.77;100.00;94030.59;5071609;28;20226;-58
2023/01/17 04:03:09;;;;;;;0.53;0.40;;;;;;;2.74;100.00;94028.31;5073468;28;20209;-56
2023/01/17 04:05:38;;;;;;;1.47;0.63;;;;;;;2.68;100.00;94021.13;5074976;28;20233;-58
2023/01/17 04:08:06;;;;;;;0.93;0.63;;;;;;;2.66;100.00;94017.84;5075494;28;20209;-58
2023/01/17 04:10:33;;;;;;;0.83;0.60;;;;;;;2.61;100.00;94014.09;5073795;28;20264;-58
2023/01/17 04:12:59;;;;;;;0.90;0.47;;;;;;;2.61;100.00;94019.31;5065492;28;20233;-58
2023/01/17 04:15:26;;;;;;;1.43;0.53;;;;;;;2.48;100.00;94009.31;5071404;28;20198;-59
2023/01/17 04:17:52;;;;;;;3.33;0.43;;;;;;;2.45;100.00;94004.41;5071850;28;20557;-57
2023/01/17 04:20:28;;;;;;;0.83;0.70;;;;;;;2.27;100.00;94001.09;5071570;28;20245;-57
2023/01/17 04:22:54;;;;;;;0.80;0.80;;;;;;;2.16;100.00;94009.22;5072521;28;20198;-58
2023/01/17 04:25:22;;;;;;;0.50;0.40;;;;;;;2.15;100.00;94004.97;5070426;28;20210;-57
2023/01/17 04:27:48;;;;;;;0.57;0.50;;;;;;;2.07;100.00;94000.53;5071339;28;20297;-58
2023/01/17 04:30:15;;;;;;;0.77;0.67;;;;;;;2.04;100.00;94000.84;5063794;28;20210;-57
2023/01/17 04:32:42;;;;;;;0.53;0.50;;;;;;;2.00;100.00;93995.13;5071217;28;20206;-58
2023/01/17 04:35:09;;;;;;;0.60;0.50;;;;;;;1.94;100.00;93985.34;5070929;28;20198;-57
2023/01/17 04:37:36;;;;;;;2.43;0.57;;;;;;;1.96;100.00;93980.78;5071144;28;20190;-57
2023/01/17 04:40:03;;;;;;;0.50;0.30;;;;;;;1.98;100.00;93976.22;5070666;28;20280;-58
2023/01/17 04:42:31;;;;;;;1.07;0.40;;;;;;;2.06;100.00;93966.81;5071192;28;20634;-58
2023/01/17 04:44:57;;;;;;;1.73;0.67;;;;;;;2.08;100.00;93960.47;5071005;28;20666;-59
2023/01/17 04:47:24;;;;;;;2.20;0.60;;;;;;;2.10;100.00;93953.31;5062871;28;20229;-57
2023/01/17 04:49:52;;;;;;;2.30;0.70;;;;;;;2.15;100.00;93942.41;5070835;28;20473;-57
2023/01/17 04:52:19;;;;;;;1.20;0.57;;;;;;;2.20;100.00;93950.56;5071721;28;20210;-59
2023/01/17 04:54:48;;;;;;;0.93;0.40;;;;;;;2.20;100.00;93945.34;5070553;28;20223;-58
2023/01/17 04:57:15;;;;;;;3.13;0.67;;;;;;;2.25;100.00;93943.09;5071433;28;20294;-58
2023/01/17 04:59:42;;;;;;;1.47;0.40;;;;;;;2.29;100.00;93947.03;5071118;28;20206;-58
2023/01/17 05:02:09;;;;;;;0.77;0.40;;;;;;;2.29;100.00;93941.81;5074126;28;20238;-59
2023/01/17 05:04:36;;;;;;;1.50;0.63;;;;;;;2.17;100.00;93943.06;5073793;28;20213;-59
2023/01/17 05:07:02;;;;;;;0.97;0.40;;;;;;;1.92;100.00;93945.59;5072435;28;20225;-59
2023/01/17 05:09:29;;;;;;;6.00;3.23;;;;;;;1.91;100.00;93930.91;5081032;28;20217;-58
2023/01/17 05:11:55;;;;;;;5.60;2.50;;;;;;;1.94;100.00;93933.25;5085393;28;20197;-57
2023/01/17 05:14:25;;;;;;;1.30;1.03;;;;;;;1.94;100.00;93937.63;5077923;28;20263;-58
2023/01/17 05:16:53;;;;;;;0.60;0.57;;;;;;;1.91;100.00;93941.34;5082818;28;20210;-58
2023/01/17 05:19:20;;;;;;;2.77;0.53;;;;;;;1.94;100.00;93930.63;5082089;28;20205;-59
2023/01/17 05:21:46;;;;;;;0.90;0.80;;;;;;;1.87;100.00;93929.63;5085914;28;20212;-60
2023/01/17 05:24:12;;;;;;;2.37;2.00;;;;;;;1.75;100.00;93917.84;5086896;28;20201;-59
2023/01/17 05:26:41;;;;;;;2.93;2.63;;;;;;;1.72;100.00;93917.34;5071351;28;20244;-58
2023/01/17 05:29:11;;;;;;;1.40;0.97;;;;;;;1.68;100.00;93913.41;5070675;28;20212;-60
2023/01/17 05:31:38;;;;;;;1.67;0.60;;;;;;;1.62;100.00;93907.06;5070710;28;20285;-59
2023/01/17 05:34:05;;;;;;;2.13;0.57;;;;;;;1.63;100.00;93908.66;5061330;28;20205;-60
2023/01/17 05:36:32;;;;;;;2.00;0.60;;;;;;;1.63;100.00;93907.88;5070163;28;20205;-60
2023/01/17 05:38:59;;;;;;;1.97;0.63;;;;;;;1.54;100.00;93908.78;5079835;28;20247;-62
2023/01/17 05:41:25;;;;;;;1.13;0.50;;;;;;;1.45;100.00;93910.56;5081552;28;20283;-59
2023/01/17 05:43:52;;;;;;;1.47;0.60;;;;;;;1.43;100.00;93913.28;5077723;28;20217;-59
2023/01/17 05:46:18;;;;;;;2.17;0.87;;;;;;;1.51;100.00;93915.13;5083112;28;20225;-59
2023/01/17 05:48:44;;;;;;;1.93;0.80;;;;;;;1.43;100.00;93918.50;5089204;28;20202;-59
2023/01/17 05:51:12;;;;;;;2.63;1.00;;;;;;;1.36;100.00;93916.66;5088259;28;20216;-65
2023/01/17 05:53:39;;;;;;;0.93;0.73;;;;;;;1.32;100.00;93920.53;5077813;28;20222;-58
2023/01/17 05:56:06;;;;;;;2.10;1.00;;;;;;;1.35;100.00;93925.44;5084196;28;20202;-60
2023/01/17 05:58:32;;;;;;;1.07;0.57;;;;;;;1.35;100.00;93925.44;5078856;28;20210;-61
2023/01/17 06:01:00;;;;;;;1.13;0.83;;;;;;;1.29;100.00;93923.47;5075795;28;20234;-56
2023/01/17 06:03:26;;;;;;;1.07;0.70;;;;;;;1.34;100.00;93918.63;5074772;28;20266;-57
2023/01/17 06:05:53;;;;;;;0.50;0.50;;;;;;;1.36;100.00;93916.66;5074127;28;21424;-59
2023/01/17 06:08:22;;;;;;;2.00;1.00;;;;;;;1.32;100.00;93903.16;5074453;28;20209;-58
2023/01/17 06:10:48;;;;;;;1.33;1.00;;;;;;;1.34;100.00;93901.22;5062747;28;20224;-59
2023/01/17 06:13:19;;;;;;;1.00;0.90;;;;;;;1.39;100.00;93900.72;5075510;28;20202;-58
2023/01/17 06:15:46;;;;;;;1.63;0.50;;;;;;;1.36;100.00;93895.84;5081939;28;20204;-60
2023/01/17 06:18:14;;;;;;;3.40;0.70;;;;;;;1.36;100.00;93890.63;5084187;28;20217;-60
2023/01/17 06:20:43;;;;;;;0.80;0.67;;;;;;;1.34;100.00;93892.59;5079075;28;20196;-59
2023/01/17 06:23:12;;;;;;;1.73;0.70;;;;;;;1.29;100.00;93881.81;5076920;28;20213;-60
2023/01/17 06:25:42;;;;;;;0.77;0.73;;;;;;;1.24;100.00;93884.09;5076909;28;20221;-59
2023/01/17 06:28:09;;;;;;;0.97;0.70;;;;;;;1.26;100.00;93879.53;5069407;28;20221;-62
2023/01/17 06:30:36;;;;;;;1.80;0.80;;;;;;;1.27;100.00;93875.97;5081142;28;20214;-59
2023/01/17 06:33:03;;;;;;;2.33;0.77;;;;;;;1.28;100.00;93872.38;5081688;28;20201;-60
2023/01/17 06:35:30;;;;;;;1.13;1.03;;;;;;;1.20;100.00;93870.56;5075548;28;20210;-61
2023/01/17 06:37:58;;;;;;;1.23;0.60;;;;;;;1.17;100.00;93862.25;5074378;28;20535;-59
2023/01/17 06:40:27;;;;;;;1.60;0.80;;;;;;;1.20;100.00;93860.16;5073758;28;20190;-60
2023/01/17 06:42:59;;;;;;;1.43;0.70;;;;;;;1.21;100.00;93850.53;5074026;28;20220;-58
2023/01/17 06:45:26;;;;;;;1.40;0.80;;;;;;;1.15;100.00;93846.78;5073528;28;20198;-59
2023/01/17 06:47:52;;;;;;;1.03;0.70;;;;;;;1.15;100.00;93843.34;5074004;28;20224;-58
2023/01/17 06:50:19;;;;;;;0.60;0.60;;;;;;;1.12;100.00;93848.88;5073328;28;20255;-59
2023/01/17 06:52:54;;;;;;;1.00;1.00;;;;;;;1.13;100.00;93853.13;5062188;28;20220;-59
2023/01/17 06:55:21;;;;;;;1.80;0.60;;;;;;;1.13;100.00;93850.50;5073262;28;20544;-59
2023/01/17 06:57:48;;;;;;;1.40;1.30;;;;;;;1.25;100.00;93844.06;5072610;28;20209;-59
2023/01/17 07:00:18;;;;;;;2.27;1.10;;;;;;;1.39;100.00;93833.06;5073181;28;20510;-60
2023/01/17 07:02:46;;;;;;;1.40;0.77;;;;;;;1.53;100.00;93835.06;5072614;28;20730;-59
2023/01/17 07:05:15;;;;;;;0.47;0.47;;;;;;;1.71;100.00;93837.56;5072800;28;20260;-60
2023/01/17 07:07:41;;;;;;;1.13;1.00;;;;;;;1.83;100.00;93826.72;5073288;28;20222;-59
2023/01/17 07:10:09;;;;;;;3.03;0.53;;;;;;;1.91;96.91;93833.72;5072370;28;20198;-59
2023/01/17 07:12:35;;;;;;;0.40;0.40;;;;;;;2.06;96.67;93831.28;5072890;28;20199;-59
2023/01/17 07:15:03;;;;;;;2.10;0.50;;;;;;;2.14;93.21;93824.31;5059775;28;20212;-59
2023/01/17 07:17:31;;;;;;;0.27;0.20;;;;;;;2.20;94.84;93828.06;5072886;28;20210;-59
2023/01/17 07:19:58;;;;;;;0.90;0.87;;;;;;;2.29;95.74;93827.09;5072831;28;20194;-58
2023/01/17 07:22:24;;;;;;;1.50;0.73;;;;;;;2.36;94.32;93828.09;5072586;28;20203;-59
2023/01/17 07:24:52;;;;;;;1.97;0.93;;;;;;;2.39;92.33;93812.09;5072049;28;20222;-57
2023/01/17 07:27:19;;;;;;;0.80;0.80;;;;;;;2.43;92.86;93809.03;5071346;28;20225;-58
2023/01/17 07:29:46;;;;;;;5.90;0.87;;;;;;;2.42;94.00;93809.16;5072530;28;20618;-59
2023/01/17 07:32:12;;;;;;;0.93;0.90;;;;;;;2.43;95.91;93813.41;5066896;28;20198;-58
2023/01/17 07:34:40;;;;;;;1.67;1.10;;;;;;;2.43;96.43;93813.41;5072905;28;20187;-59
2023/01/17 07:37:07;;;;;;;4.03;1.07;;;;;;;2.34;97.29;93802.16;5095133;28;20198;-59
2023/01/17 07:39:35;;;;;;;1.00;1.00;;;;;;;2.36;97.08;93804.63;5095072;28;20250;-59
2023/01/17 07:42:01;;;;;;;1.20;0.90;;;;;;;2.27;97.04;93806.41;5094848;28;20198;-59
2023/01/17 07:44:28;;;;;;;1.03;0.97;;;;;;;2.46;97.92;93818.31;5080686;28;20538;-58
2023/01/17 07:46:54;;;;;;;0.90;0.90;;;;;;;2.49;97.38;93823.19;5072801;28;20313;-59
2023/01/17 07:49:21;;;;;;;0.97;0.97;;;;;;;2.52;97.87;93822.84;5072942;28;20540;-58
2023/01/17 07:51:49;;;;;;;1.30;1.20;;;;;;;2.55;98.64;93817.31;5058216;28;20214;-59
2023/01/17 07:54:19;;;;;;;2.20;0.80;;;;;;;2.49;94.96;93803.16;5071904;28;20267;-59
2023/01/17 07:56:46;;;;;;;0.80;0.80;;;;;;;2.64;95.11;93803.31;5072174;28;20198;-59
2023/01/17 07:59:16;;;;;;;0.80;0.80;;;;;;;2.65;94.49;93798.91;5071833;28;20199;-59
2023/01/17 08:01:44;;;;;;;3.70;1.17;;;;;;;2.64;94.62;93795.47;5071358;28;20292;-58
2023/01/17 08:04:11;;;;;;;0.73;0.70;;;;;;;2.72;97.34;93797.25;5070809;28;20655;-57
2023/01/17 08:06:39;;;;;;;0.80;0.80;;;;;;;2.70;97.07;93784.38;5070231;28;20225;-59
2023/01/17 08:09:07;;;;;;;1.33;0.80;;;;;;;2.76;97.34;93775.91;5056178;28;20230;-59
2023/01/17 08:11:33;;;;;;;1.10;1.00;;;;;;;2.71;96.41;93767.75;5072496;28;20206;-59
2023/01/17 08:14:00;;;;;;;2.50;0.90;;;;;;;2.70;96.22;93758.28;5072523;28;20209;-58
2023/01/17 08:16:28;;;;;;;3.60;1.50;;;;;;;2.62;97.59;93749.69;5080981;28;20195;-59
2023/01/17 08:18:55;;;;;;;1.10;1.10;;;;;;;2.61;99.80;93738.44;5085531;28;20230;-58
2023/01/17 08:21:22;;;;;;;1.40;1.30;;;;;;;2.64;100.00;93727.66;5086121;28;20202;-60
2023/01/17 08:23:49;;;;;;;1.63;1.20;;;;;;;2.60;100.00;93730.75;5075911;28;20198;-59
2023/01/17 08:26:21;;;;;;;1.03;0.90;;;;;;;2.73;100.00;93734.47;5072353;28;20198;-59
2023/01/17 08:28:48;;;;;;;1.13;1.00;;;;;;;2.77;100.00;93733.16;5072496;28;20214;-59
2023/01/17 08:31:16;;;;;;;1.20;1.20;;;;;;;2.78;100.00;93734.78;5071736;28;20206;-59
2023/01/17 08:33:43;;;;;;;1.70;1.60;;;;;;;2.86;100.00;93747.00;5056603;28;20195;-59
2023/01/17 08:36:09;;;;;;;2.03;1.43;;;;;;;2.83;100.00;93758.59;5071708;28;20210;-59
2023/01/17 08:38:36;;;;;;;2.13;1.40;;;;;;;2.91;100.00;93758.56;5071605;28;20210;-59
2023/01/17 08:41:02;;;;;;;1.43;1.23;;;;;;;2.90;100.00;93743.09;5070800;28;20206;-59
2023/01/17 08:43:30;;;;;;;1.40;1.30;;;;;;;2.87;100.00;93736.38;5071288;28;20528;-59
2023/01/17 08:45:57;;;;;;;1.73;1.17;;;;;;;2.97;100.00;93723.16;5071479;28;20520;-58
2023/01/17 08:48:24;;;;;;;3.93;1.57;;;;;;;2.98;100.00;93722.16;5070963;28;20222;-59
2023/01/17 08:50:51;;;;;;;2.17;1.40;;;;;;;3.01;100.00;93719.25;5071170;28;20631;-60
2023/01/17 08:53:20;;;;;;;1.60;1.20;;;;;;;2.99;100.00;93708.97;5068671;28;20202;-57
2023/01/17 08:55:47;;;;;;;3.03;1.60;;;;;;;3.06;100.00;93706.47;5058348;28;20211;-59
2023/01/17 08:58:13;;;;;;;2.90;1.70;;;;;;;3.06;100.00;93682.19;5071176;28;20229;-59
2023/01/17 09:00:41;;;;;;;2.67;1.23;;;;;;;3.06;100.00;93674.34;5071186;28;20194;-59
2023/01/17 09:03:12;;;;;;;2.50;1.40;;;;;;;3.09;100.00;93667.00;5071129;28;20205;-59
2023/01/17 09:05:39;;;;;;;2.33;1.20;;;;;;;3.09;100.00;93666.16;5070674;28;20283;-59
2023/01/17 09:08:06;;;;;;;1.73;1.63;;;;;;;3.11;100.00;93667.66;5070794;28;20229;-59
2023/01/17 09:10:32;;;;;;;2.10;1.30;;;;;;;3.15;100.00;93662.91;5070792;28;20202;-59
2023/01/17 09:12:59;;;;;;;2.00;1.43;;;;;;;3.18;100.00;93683.44;5055178;28;20519;-60
2023/01/17 09:15:25;;;;;;;1.93;1.63;;;;;;;3.14;100.00;93674.31;5070653;28;20198;-57
2023/01/17 09:17:56;;;;;;;3.70;1.80;;;;;;;3.16;99.94;93680.97;5071281;28;20213;-60
2023/01/17 09:20:23;;;;;;;2.23;2.00;;;;;;;3.06;99.06;93677.78;5073407;28;20285;-59
2023/01/17 09:22:50;;;;;;;1.70;1.60;;;;;;;3.16;100.00;93682.78;5075349;28;20259;-59
2023/01/17 09:25:17;;;;;;;2.70;1.90;;;;;;;3.19;100.00;93685.88;5074600;28;20268;-59
2023/01/17 09:27:45;;;;;;;2.00;1.90;;;;;;;3.18;99.58;93684.25;5075053;28;20222;-59
2023/01/17 09:30:12;;;;;;;4.93;2.27;;;;;;;3.24;100.00;93687.97;5066661;28;20216;-60
2023/01/17 09:32:38;;;;;;;2.83;2.13;;;;;;;3.27;100.00;93679.78;5068582;28;20233;-59
2023/01/17 09:35:07;;;;;;;3.60;2.23;;;;;;;3.30;99.40;93692.50;5082304;28;20199;-61
2023/01/17 09:37:34;;;;;;;2.67;2.30;;;;;;;3.29;99.42;93680.44;5082350;28;20206;-61
2023/01/17 09:40:01;;;;;;;2.57;2.20;;;;;;;3.33;98.11;93684.34;5078494;28;20222;-59
2023/01/17 09:42:32;;;;;;;3.07;1.87;;;;;;;3.32;98.33;93683.53;5074775;28;20289;-60
2023/01/17 09:44:59;;;;;;;5.00;2.10;;;;;;;3.33;99.54;93686.97;5074787;28;20194;-61
2023/01/17 09:47:32;;;;;;;3.87;2.03;;;;;;;3.33;99.47;93687.75;5074968;28;20227;-61
2023/01/17 09:50:07;;;;;;;4.20;2.13;;;;;;;3.36;97.90;93689.22;5074861;28;20182;-60
2023/01/17 09:52:35;;;;;;;2.40;2.17;;;;;;;3.40;98.06;93682.69;5075013;28;20197;-61
2023/01/17 09:55:01;;;;;;;2.00;1.90;;;;;;;3.41;97.83;93690.31;5075684;28;20210;-62
2023/01/17 09:57:40;;;;;;;2.30;2.10;;;;;;;3.45;98.29;93682.97;5057854;28;20206;-59
2023/01/17 10:00:15;;;;;;;6.63;2.23;;;;;;;3.47;97.63;93673.16;5075898;28;20533;-59
2023/01/17 10:02:50;;;;;;;1.77;1.67;;;;;;;3.49;96.51;93674.63;5075817;28;20249;-60
2023/01/17 10:05:29;;;;;;;3.37;2.50;;;;;;;3.54;95.55;93674.09;5075582;28;20202;-59
2023/01/17 10:08:16;;;;;;;7.63;2.80;;;;;;;3.60;95.85;93677.81;5075365;28;20274;-60
2023/01/17 10:10:47;;;;;;;10.50;3.27;;;;;;;3.63;96.65;93667.81;5074593;28;20510;-60
2023/01/17 10:13:25;;;;;;;3.00;2.67;;;;;;;3.61;94.94;93663.78;5074432;28;20207;-61
2023/01/17 10:16:00;;;;;;;1.73;1.63;;;;;;;3.64;94.79;93663.41;5075823;28;20199;-61
2023/01/17 10:18:38;;;;;;;1.83;1.73;;;;;;;3.63;92.90;93662.59;5055662;28;20622;-60
2023/01/17 10:21:09;;;;;;;5.77;2.40;;;;;;;3.62;93.57;93653.13;5075828;28;20337;-61
2023/01/17 10:23:56;;;;;;;3.10;2.10;;;;;;;3.71;96.84;93659.13;5077123;28;20203;-60
2023/01/17 10:26:24;;;;;;;2.43;1.87;;;;;;;3.73;94.14;93657.13;5077098;28;20202;-61
2023/01/17 10:28:52;;;;;;;2.13;1.93;;;;;;;3.77;94.66;93658.41;5075451;28;20234;-61
2023/01/17 10:31:22;;;;;;;3.93;2.33;;;;;;;3.69;94.23;93654.06;5076509;28;20205;-59
2023/01/17 10:33:51;;;;;;;4.00;2.93;;;;;;;3.70;95.02;93652.25;5078483;28;20213;-60
2023/01/17 10:36:20;;;;;;;2.97;2.00;;;;;;;3.63;96.38;93639.09;5062488;28;20206;-60
2023/01/17 10:38:50;;;;;;;3.07;2.27;;;;;;;3.55;94.55;93639.13;5076665;28;20210;-60
2023/01/17 10:41:21;;;;;;;2.97;2.23;;;;;;;3.60;95.87;93636.00;5079922;28;20209;-61
2023/01/17 10:43:53;;;;;;;4.43;2.30;;;;;;;3.56;94.49;93624.28;5087387;28;20193;-60
2023/01/17 10:46:22;;;;;;;2.60;2.30;;;;;;;3.50;95.44;93623.19;5088096;28;20183;-60
2023/01/17 10:48:51;;;;;;;4.80;2.40;;;;;;;3.55;95.58;93614.81;5093202;28;20223;-61
2023/01/17 10:51:48;;;;;;;3.80;2.63;;;;;;;3.57;96.87;93611.06;5096076;28;20906;-61
2023/01/17 10:54:24;;;;;;;5.87;2.83;;;;;;;3.57;100.00;93595.38;5045816;28;20271;-58
2023/01/17 10:56:50;;;;;;;2.67;2.47;;;;;;;3.56;97.71;93591.13;5074212;28;20194;-60
2023/01/17 10:59:21;;;;;;;4.20;2.40;;;;;;;3.59;96.18;93590.78;5073545;28;21342;-60
2023/01/17 11:01:48;;;;;;;2.17;1.97;;;;;;;3.56;94.99;93587.72;5073395;28;20686;-61
2023/01/17 11:04:20;;;;;;;1.87;1.73;;;;;;;3.50;92.16;93589.22;5073288;28;20216;-60
2023/01/17 11:06:47;;;;;;;2.00;1.73;;;;;;;3.55;90.80;93576.44;5072172;28;20205;-60
2023/01/17 11:09:13;;;;;;;2.10;2.00;;;;;;;3.45;90.97;93579.31;5072816;28;20230;-60
2023/01/17 11:11:48;;;;;;;3.97;2.10;;;;;;;3.50;91.04;93569.16;5073047;28;20210;-60
2023/01/17 11:14:18;;;;;;;2.93;2.57;;;;;;;3.49;92.19;93571.94;5072700;28;20256;-60
2023/01/17 11:16:45;;;;;;;6.47;2.33;;;;;;;3.48;92.84;93571.13;5072635;28;20202;-60
2023/01/17 11:19:15;;;;;;;4.83;2.40;;;;;;;3.48;92.66;93576.34;5063458;28;20213;-58
2023/01/17 11:21:50;;;;;;;2.20;2.10;;;;;;;3.49;93.30;93567.53;5062515;28;20497;-61
2023/01/17 11:24:20;;;;;;;2.60;2.40;;;;;;;3.54;91.68;93569.63;5072415;28;20198;-60
2023/01/17 11:26:49;;;;;;;2.80;2.20;;;;;;;3.53;92.06;93569.78;5071976;28;20882;-60
2023/01/17 11:29:31;;;;;;;3.27;2.20;;;;;;;3.61;93.25;93565.31;5074029;28;20227;-61
2023/01/17 11:32:27;;;;;;;3.27;2.23;;;;;;;3.60;91.91;93547.19;5073081;28;20216;-58
2023/01/17 11:35:07;;;;;;;2.57;2.37;;;;;;;3.64;92.20;93548.47;5072532;28;20214;-59
2023/01/17 11:37:34;;;;;;;2.70;2.50;;;;;;;3.54;93.07;93540.88;5072644;28;20202;-61
2023/01/17 11:40:07;;;;;;;3.83;2.70;;;;;;;3.66;94.85;93549.09;5068381;28;20206;-58
2023/01/17 11:42:36;;;;;;;3.07;2.50;;;;;;;3.66;92.65;93546.47;5056616;28;20642;-60
2023/01/17 11:45:24;;;;;;;2.70;2.43;;;;;;;3.65;93.78;93540.44;5071459;28;20199;-60
2023/01/17 11:48:11;;;;;;;7.13;2.40;;;;;;;3.67;92.50;93533.25;5072560;28;20226;-60
2023/01/17 11:50:39;;;;;;;2.37;2.17;;;;;;;3.70;92.12;93526.84;5072492;28;20186;-60
2023/01/17 11:53:06;;;;;;;2.37;2.17;;;;;;;3.70;91.33;93516.41;5072615;28;20206;-60
2023/01/17 11:55:33;;;;;;;4.57;2.77;;;;;;;3.79;91.50;93515.34;5072223;28;20205;-61
2023/01/17 11:58:01;;;;;;;3.47;2.77;;;;;;;3.81;91.01;93502.91;5073915;28;20199;-60
2023/01/17 12:00:31;;;;;;;4.20;2.97;;;;;;;3.84;91.98;93508.59;5052514;28;20654;-59
2023/01/17 12:03:25;;;;;;;5.37;3.13;;;;;;;3.88;93.37;93504.63;5073818;28;20205;-59
2023/01/17 12:05:58;;;;;;;4.40;3.00;;;;;;;3.95;92.10;93497.69;5064368;28;20635;-60
2023/01/17 12:08:32;;;;;;;2.50;2.30;;;;;;;3.90;91.25;93492.19;5072760;28;20661;-60
2023/01/17 12:11:04;;;;;;;2.87;2.67;;;;;;;3.94;92.06;93482.16;5072132;28;20199;-60
2023/01/17 12:16:34;;;;;;;2.80;2.43;;;;;;;3.93;92.10;93455.22;5071746;28;20296;-60
2023/01/17 12:19:24;;;;;;;3.83;3.53;;;;;;;3.97;92.45;93447.81;5050458;28;20281;-59
2023/01/17 12:21:57;;;;;;;3.43;2.30;;;;;;;4.03;91.28;93448.91;5071866;28;20194;-60
2023/01/17 12:24:44;;;;;;;3.93;2.90;;;;;;;4.01;93.25;93436.03;5071163;28;20205;-60
2023/01/17 12:27:18;;;;;;;4.87;2.30;;;;;;;4.08;91.35;93431.69;5071527;28;20646;-59
2023/01/17 12:29:49;;;;;;;3.33;2.20;;;;;;;4.03;91.42;93428.00;5071362;28;20215;-60
2023/01/17 12:32:33;;;;;;;3.10;2.37;;;;;;;3.92;89.77;93431.91;5071459;28;20202;-60
2023/01/17 12:35:03;;;;;;;2.50;2.30;;;;;;;3.95;91.39;93432.34;5071556;28;20510;-60
2023/01/17 12:37:33;;;;;;;2.73;2.13;;;;;;;3.93;94.08;93434.31;5071581;28;20202;-60
2023/01/17 12:40:03;;;;;;;2.97;2.60;;;;;;;3.96;93.91;93433.16;5071131;28;20210;-59
2023/01/17 12:42:33;;;;;;;2.90;2.47;;;;;;;3.96;93.77;93438.38;5064167;28;20533;-58
2023/01/17 12:45:04;;;;;;;2.87;2.70;;;;;;;3.96;92.96;93438.38;5057523;28;20217;-59
2023/01/17 12:47:33;;;;;;;2.60;2.40;;;;;;;3.89;92.02;93443.53;5071638;28;20199;-60
2023/01/17 12:50:05;;;;;;;2.73;2.50;;;;;;;3.84;92.69;93443.25;5071180;28;20233;-60
2023/01/17 12:52:48;;;;;;;2.57;2.30;;;;;;;3.80;94.14;93443.78;5071219;28;20198;-60
2023/01/17 12:55:19;;;;;;;2.60;2.40;;;;;;;3.83;93.17;93439.00;5070711;28;20199;-60
2023/01/17 12:57:47;;;;;;;2.97;2.70;;;;;;;3.76;96.60;93432.88;5071325;28;20232;-60
2023/01/17 13:00:18;;;;;;;2.60;2.40;;;;;;;3.86;98.30;93424.78;5071066;28;20202;-59
2023/01/17 13:02:50;;;;;;;3.70;2.70;;;;;;;3.89;96.50;93434.88;5070260;28;20234;-60
2023/01/17 13:05:22;;;;;;;3.47;2.53;;;;;;;3.89;95.01;93422.63;5048138;28;20239;-59
2023/01/17 13:07:54;;;;;;;6.40;2.67;;;;;;;3.84;93.27;93424.13;5069762;28;20190;-60
2023/01/17 13:10:26;;;;;;;7.17;2.37;;;;;;;3.86;94.69;93422.97;5071267;28;20259;-59
2023/01/17 13:12:54;;;;;;;2.80;2.57;;;;;;;3.94;94.72;93427.28;5071728;28;20281;-60